ADDS METAR Data INFO
IDs: Format: Raw Decoded Include TAF

Data at: 0502 UTC 23 May 2017

K3T5 230455Z AUTO 00000KT 10SM SCT017 22/19 A2989 RMK AO2 T02150189
K3T5 230435Z AUTO 00000KT 10SM OVC017 22/19 A2989 RMK AO2 T02200190
K3T5 230415Z AUTO 05003KT 10SM OVC017 22/19 A2988 RMK AO2 T02170190
K3T5 230355Z AUTO 04005KT 10SM OVC017 22/19 A2989 RMK AO2 T02200190
K3T5 230335Z AUTO 05004KT 10SM OVC017 22/19 A2988 RMK AO2 T02200190
K3T5 230315Z AUTO 02004KT 10SM OVC017 22/19 A2988 RMK AO2 T02180190
K3T5 230255Z AUTO 00000KT 10SM OVC015 22/19 A2988 RMK AO2 T02200192
K3T5 230235Z AUTO 05005KT 10SM OVC015 22/19 A2988 RMK AO2 T02200192
K3T5 230215Z AUTO 04003KT 10SM OVC017 22/19 A2988 RMK AO2 T02210193
K3T5 230155Z AUTO 04004KT 10SM OVC017 22/20 A2987 RMK AO2 T02220195
K3T5 230135Z AUTO 03003KT 10SM BKN019 22/20 A2987 RMK AO2 T02240195
K3T5 230115Z AUTO 02004KT 10SM SCT021 23/20 A2987 RMK AO2 T02280196
K3T5 230055Z AUTO 02004KT 10SM OVC021 24/20 A2987 RMK AO2 T02360198
K3T5 230035Z AUTO 03006KT 10SM OVC021 24/20 A2986 RMK AO2 LTG DSNT N T02420199
K3T5 230015Z AUTO 02005KT 10SM SCT021 25/20 A2986 RMK AO2 T02500201
K3T5 222355Z AUTO 02003KT 10SM SCT024 25/20 A2986 RMK AO2 LTG DSNT N T02500202 10266 20232
K3T5 222335Z AUTO 03005KT 10SM OVC024 25/20 A2986 RMK AO2 T02490202
K3T5 222315Z AUTO 36006KT 10SM OVC024 25/20 A2987 RMK AO2 T02540204
K3T5 222255Z AUTO 03004KT 10SM OVC022 26/21 A2987 RMK AO2 T02560205
K3T5 222235Z AUTO 36005KT 10SM BKN022 BKN075 26/21 A2987 RMK AO2 T02580205
K3T5 222215Z AUTO 02006KT 10SM BKN020 BKN075 26/21 A2988 RMK AO2 T02600206
K3T5 222155Z AUTO 03005KT 10SM OVC018 25/21 A2988 RMK AO2 T02510205
K3T5 222135Z AUTO 06003KT 10SM OVC016 25/21 A2988 RMK AO2 T02510209
K3T5 222115Z AUTO 02005KT 10SM OVC016 25/21 A2989 RMK AO2 T02460206
K3T5 222055Z AUTO 06005KT 10SM OVC016 25/21 A2990 RMK AO2 T02460206
K3T5 222035Z AUTO 03006KT 10SM OVC016 25/21 A2991 RMK AO2 T02470206
K3T5 222015Z AUTO 04006KT 10SM OVC016 25/20 A2992 RMK AO2 T02450204
K3T5 221955Z AUTO 04006KT 10SM OVC016 25/20 A2993 RMK AO2 T02450204
K3T5 221935Z AUTO 03006KT 10SM BKN014 OVC028 25/21 A2993 RMK AO2 T02510208
K3T5 221915Z AUTO 05004KT 10SM BKN014 OVC028 25/21 A2993 RMK AO2 T02480205
K3T5 221855Z AUTO 02007KT 10SM OVC014 24/20 A2994 RMK AO2 T02390202
K3T5 221835Z AUTO 02007KT 10SM OVC014 24/20 A2994 RMK AO2 T02380200
K3T5 221815Z AUTO 02007KT 10SM OVC012 23/20 A2995 RMK AO2 T02330199
K3T5 221755Z AUTO 03005KT 10SM OVC010 24/20 A2996 RMK AO2 T02350203 10235 20180
K3T5 221735Z AUTO 05006KT 10SM OVC010 23/20 A2996 RMK AO2 LTG DSNT S T02260198
K3T5 221715Z AUTO 04006KT 10SM OVC010 22/20 A2998 RMK AO2 T02200196
K3T5 221655Z AUTO 03005KT 10SM OVC010 22/20 A2998 RMK AO2 T02200197
K3T5 221635Z AUTO 01007KT 10SM OVC010 22/20 A2998 RMK AO2 T02180196
K3T5 221615Z AUTO 03004KT 10SM OVC008 21/19 A2999 RMK AO2 T02110192
K3T5 221555Z AUTO 03004KT 10SM OVC006 20/19 A2999 RMK AO2 T02030189
K3T5 221535Z AUTO 04004KT 10SM OVC006 20/19 A2999 RMK AO2 T02000189
K3T5 221515Z AUTO 02005KT 7SM OVC006 19/19 A2999 RMK AO2 T01930186
K3T5 221455Z AUTO 04007KT 7SM OVC006 19/18 A2999 RMK AO2 T01890182
K3T5 221435Z AUTO 02008KT 7SM OVC006 18/18 A2999 RMK AO2 T01820176
K3T5 221415Z AUTO 01006KT 5SM BR OVC006 18/18 A2999 RMK AO2 T01800175
K3T5 221355Z AUTO 01005KT 5SM BR OVC006 18/18 A2999 RMK AO2 T01810176
K3T5 221335Z AUTO 01006KT 5SM BR OVC004 18/18 A2998 RMK AO2 T01810176
K3T5 221315Z AUTO 01005KT 7SM OVC004 18/18 A2998 RMK AO2 T01840179
K3T5 221255Z AUTO 36005KT 10SM OVC004 19/18 A2997 RMK AO2 T01870183
K3T5 221235Z AUTO 36004KT 5SM BR OVC004 19/18 A2997 RMK AO2 LTG DSNT SE T01870183
K3T5 221215Z AUTO 01004KT 4SM -DZ OVC004 19/19 A2998 RMK AO2 T01890185
K3T5 221155Z AUTO 36003KT 3SM -DZ OVC004 19/19 A2999 RMK AO2 60001 70010 T01900186 10195 20188
K3T5 221135Z AUTO 36005KT 3SM -DZ OVC004 19/19 A2998 RMK AO2 T01910187
K3T5 221115Z AUTO 02004KT 2 1/2SM DZ OVC004 19/19 A2998 RMK AO2 T01910186
K3T5 221055Z AUTO 00000KT 3SM -DZ OVC004 19/19 A2997 RMK AO2 LTG DSNT SE T01910185
K3T5 221035Z AUTO 36004KT 5SM BR OVC006 19/19 A2996 RMK AO2 LTG DSNT SE AND S T01910185
K3T5 221015Z AUTO 01004KT 10SM -DZ OVC006 19/19 A2995 RMK AO2 LTG DSNT S T01910185
K3T5 220955Z AUTO 36004KT 10SM DZ OVC006 19/18 A2997 RMK AO2 LTG DSNT N P0001 T01910184
K3T5 220935Z AUTO 35004KT 10SM -RA OVC008 19/18 A2998 RMK AO2 LTG DSNT S T01910182
K3T5 220915Z AUTO 35004KT 10SM BKN008 OVC022 19/18 A2998 RMK AO2 LTG DSNT N SE AND S T01920182
K3T5 220855Z AUTO 03003KT 10SM SCT008 OVC020 19/18 A2998 RMK AO2 LTG DSNT S T01900180
K3T5 220835Z AUTO 02004KT 10SM OVC020 19/18 A2999 RMK AO2 LTG DSNT S T01900179
K3T5 220815Z AUTO 02004KT 10SM SCT009 OVC019 19/18 A3000 RMK AO2 T01890177
K3T5 220755Z AUTO 36005KT 10SM BKN009 OVC019 19/18 A3001 RMK AO2 T01890175
K3T5 220735Z AUTO 01004KT 10SM BKN009 BKN016 OVC021 19/18 A3002 RMK AO2 LTG DSNT S T01900176
K3T5 220715Z AUTO 01003KT 10SM BKN009 OVC019 19/18 A3002 RMK AO2 T01900179
K3T5 220655Z AUTO 01005KT 10SM BKN011 OVC021 19/18 A3001 RMK AO2 T01910180
K3T5 220635Z AUTO 01004KT 10SM OVC009 19/18 A3002 RMK AO2 T01920180
K3T5 220615Z AUTO 01003KT 10SM OVC009 19/18 A3003 RMK AO2 T01940181
K3T5 220555Z AUTO 02003KT 10SM OVC007 20/18 A3004 RMK AO2 60004 T01950182 10237 20193 402890193
K3T5 220535Z AUTO 03007KT 10SM OVC007 19/18 A3003 RMK AO2 T01940183
K3T5 220515Z AUTO 01005KT 10SM SCT007 20/19 A3002 RMK AO2 T01950185
K3T5 220455Z AUTO 02007KT 10SM CLR 20/19 A3001 RMK AO2 T01960186
K3T5 220435Z AUTO 35006KT 10SM CLR 20/19 A3004 RMK AO2 T02000187
K3T5 220415Z AUTO 35004KT 10SM SCT029 20/19 A3005 RMK AO2 T02020189
K3T5 220355Z AUTO 35004KT 10SM OVC031 21/19 A3006 RMK AO2 T02050189
K3T5 220335Z AUTO 35004KT 10SM BKN031 OVC037 21/19 A3008 RMK AO2 T02070189
K3T5 220315Z AUTO 00000KT 10SM BKN035 21/19 A3007 RMK AO2 T02070186
K3T5 220255Z AUTO 01007KT 10SM OVC033 21/19 A3004 RMK AO2 60004 T02070189
K3T5 220235Z AUTO 02007KT 10SM SCT021 OVC029 21/19 A3001 RMK AO2 LTG DSNT SE T02110192
K3T5 220215Z AUTO 36007KT 10SM BKN027 22/21 A3000 RMK AO2 LTG DSNT N T02190207
K3T5 220155Z AUTO 01005KT 10SM SCT025 22/21 A3000 RMK AO2 T02230214
K3T5 220135Z AUTO 01005KT 10SM CLR 22/21 A2999 RMK AO2 LTG DSNT N T02240214
K3T5 220115Z AUTO 01005KT 10SM -DZ SCT027 SCT046 SCT080 23/22 A2999 RMK AO2 LTG DSNT N T02250215
K3T5 220055Z AUTO 02004KT 10SM -RA SCT035 BKN070 BKN080 23/21 A3000 RMK AO2 P0004 T02260213
K3T5 220035Z AUTO 36005KT 7SM VCTSRA BKN028 BKN037 OVC110 23/22 A3001 RMK AO2 LTG DSNT N THRU SE P0003 T02310217
K3T5 220015Z AUTO 31003KT 10SM -TSRA OVC028 24/22 A3004 RMK AO2 LTG DSNT NW P0001 T02350216
K3T5 212355Z AUTO 33004KT 10SM -DZ OVC028 24/22 A3001 RMK AO2 LTG DSNT W AND NW P0004 60005 T02360217 10289 20236
K3T5 212335Z AUTO 34006KT 10SM -RA OVC026 24/22 A2999 RMK AO2 LTG DSNT NW P0004 T02380218
K3T5 212315Z AUTO 35004KT 10SM -RA OVC026 24/22 A2998 RMK AO2 LTG DSNT W P0003 T02420217
K3T5 212255Z AUTO 35003KT 7SM RA OVC028 26/22 A2998 RMK AO2 LTG DSNT SW P0001 T02580216
K3T5 212235Z AUTO 00000KT 10SM OVC030 27/21 A2999 RMK AO2 LTG DSNT E T02670210
K3T5 212215Z AUTO 03005KT 10SM BKN032 BKN040 27/21 A2997 RMK AO2 LTG DSNT S T02700207
K3T5 212155Z AUTO 04006KT 10SM SCT036 SCT045 27/21 A2996 RMK AO2 LTG DSNT SE AND S T02730209
K3T5 212135Z AUTO 02007KT 10SM BKN036 BKN046 27/21 A2999 RMK AO2 LTG DSNT SE S AND NW T02730206
K3T5 212115Z AUTO 04008KT 10SM CLR 28/21 A2998 RMK AO2 LTG DSNT S T02840210
K3T5 212055Z AUTO 01008KT 10SM SCT033 BKN038 BKN110 28/21 A2999 RMK AO2 LTG DSNT E AND S T02800209
K3T5 212035Z AUTO 01007KT 10SM BKN033 28/21 A3001 RMK AO2 LTG DSNT SE THRU SW T02800209
K3T5 212015Z AUTO 01008KT 10SM BKN029 28/21 A2999 RMK AO2 LTG DSNT SE AND S T02830210
K3T5 211955Z AUTO 01008KT 340V040 10SM CLR 29/21 A2998 RMK AO2 LTG DSNT SE THRU W T02880211
K3T5 211935Z AUTO 03006KT 10SM SCT024 28/22 A2998 RMK AO2 LTG DSNT SE AND S T02830215
K3T5 211915Z AUTO 02008KT 10SM BKN024 28/21 A3000 RMK AO2 LTG DSNT E THRU S T02790212
K3T5 211855Z AUTO 02008KT 10SM OVC024 27/21 A3000 RMK AO2 LTG DSNT S T02740211
K3T5 211835Z AUTO 03007KT 10SM OVC022 26/21 A3001 RMK AO2 LTG DSNT S T02620205
K3T5 211815Z AUTO 03008KT 10SM OVC022 27/21 A3001 RMK AO2 LTG DSNT S T02670211
K3T5 211755Z AUTO 04006KT 10SM OVC020 26/21 A3002 RMK AO2 T02610212 10269 20230
K3T5 211735Z AUTO 06006KT 10SM OVC020 27/22 A3002 RMK AO2 T02680218
K3T5 211715Z AUTO 03006KT 10SM BKN018 OVC120 27/22 A3003 RMK AO2 T02650215


Page loaded:  05:02 UTC  |   10:02 PM Pacific  |   11:02 PM Mountain  |   12:02 AM Central  |   01:02 AM Eastern

 

ADVISORIES

FORECASTS

FORECASTS

OBSERVATIONS

USER TOOLS

ABOUT US